Time;durP1;ratioP1;P1;durP2;ratioP2;P2;SDS_P1;SDS_P2;PMS_P1;PMS_P2;Temp;Humidity;BMP_temperature;BMP_pressure;BME280_temperature;BME280_humidity;BME280_pressure;Samples;Min_cycle;Max_cycle;Signal;HPM_P1;HPM_P2
2022/10/17 00:01:21;;;;;;;1.67;1.33;;;;;;;22.13;49.96;101362.69;5074307;28;20040;-65
2022/10/17 00:03:46;;;;;;;2.90;1.67;;;;;;;22.15;49.61;101355.13;5074006;28;20521;-65
2022/10/17 00:06:13;;;;;;;2.35;1.60;;;;;;;22.14;49.53;101369.00;5073943;28;20474;-65
2022/10/17 00:08:40;;;;;;;3.22;1.83;;;;;;;22.11;50.11;101353.00;5056162;28;20158;-65
2022/10/17 00:11:08;;;;;;;1.50;1.40;;;;;;;22.05;50.51;101360.06;5055994;28;20020;-64
2022/10/17 00:13:34;;;;;;;2.80;1.08;;;;;;;22.08;49.66;101367.88;5073825;28;20055;-65
2022/10/17 00:15:59;;;;;;;4.05;1.30;;;;;;;22.06;49.57;101361.72;5073595;28;20029;-65
2022/10/17 00:18:25;;;;;;;3.03;1.60;;;;;;;22.04;49.61;101352.91;5073778;28;20029;-65
2022/10/17 00:20:50;;;;;;;3.72;1.52;;;;;;;22.01;50.20;101356.00;5055779;28;20024;-65
2022/10/17 00:23:16;;;;;;;5.38;1.30;;;;;;;22.00;50.05;101357.03;5073618;28;20028;-65
2022/10/17 00:25:41;;;;;;;2.25;1.85;;;;;;;21.98;49.51;101348.19;5072884;28;20032;-65
2022/10/17 00:28:14;;;;;;;2.83;1.52;;;;;;;21.91;50.23;101352.75;5073840;28;20394;-65
2022/10/17 00:30:40;;;;;;;3.28;1.15;;;;;;;21.92;50.18;101348.94;5072257;28;20103;-65
2022/10/17 00:33:05;;;;;;;1.35;1.20;;;;;;;21.85;50.01;101350.72;5073593;28;20085;-65
2022/10/17 00:35:31;;;;;;;2.10;1.45;;;;;;;21.86;49.56;101349.72;5072239;28;20508;-65
2022/10/17 00:37:56;;;;;;;2.60;1.27;;;;;;;21.83;49.81;101350.09;5073585;28;20031;-65
2022/10/17 00:40:22;;;;;;;8.55;1.95;;;;;;;21.81;50.56;101350.25;5073431;28;20032;-65
2022/10/17 00:42:50;;;;;;;1.65;1.45;;;;;;;21.79;50.59;101359.66;5073394;28;20041;-65
2022/10/17 00:45:28;;;;;;;2.55;1.73;;;;;;;21.76;49.90;101360.91;5073722;28;20086;-65
2022/10/17 00:48:04;;;;;;;1.75;1.30;;;;;;;21.72;50.14;101356.84;5073326;28;20067;-65
2022/10/17 00:50:30;;;;;;;1.92;1.40;;;;;;;21.71;49.77;101357.91;5072129;28;20025;-65
2022/10/17 00:52:58;;;;;;;2.30;1.65;;;;;;;21.70;49.99;101361.66;5071973;28;20035;-65
2022/10/17 00:55:28;;;;;;;3.03;1.85;;;;;;;21.70;50.19;101355.34;5054949;28;20190;-65
2022/10/17 00:57:54;;;;;;;2.95;1.83;;;;;;;21.70;50.19;101358.06;5072000;28;20048;-65
2022/10/17 01:00:20;;;;;;;1.92;1.73;;;;;;;21.63;50.08;101346.22;5073251;28;20029;-65
2022/10/17 01:02:46;;;;;;;2.85;1.52;;;;;;;21.64;50.53;101356.09;5055181;28;20378;-65
2022/10/17 01:05:12;;;;;;;3.22;2.00;;;;;;;21.62;49.69;101352.72;5073140;28;20028;-65
2022/10/17 01:07:38;;;;;;;3.03;1.70;;;;;;;21.60;49.86;101349.34;5071928;28;20036;-65
2022/10/17 01:10:05;;;;;;;3.88;2.00;;;;;;;21.56;49.90;101358.91;5071829;28;20034;-65
2022/10/17 01:12:49;;;;;;;2.22;1.65;;;;;;;21.56;49.93;101356.19;5073117;28;20035;-65
2022/10/17 01:15:38;;;;;;;4.22;1.63;;;;;;;21.51;50.45;101361.34;5072994;28;20039;-65
2022/10/17 01:18:19;;;;;;;1.90;1.58;;;;;;;21.48;49.79;101357.97;5071913;28;20111;-65
2022/10/17 01:20:53;;;;;;;4.97;1.40;;;;;;;21.45;50.42;101361.09;5072140;28;20029;-65
2022/10/17 01:23:56;;;;;;;2.42;1.83;;;;;;;21.43;50.16;101359.56;5073264;28;20501;-65
2022/10/17 01:27:02;;;;;;;2.97;1.83;;;;;;;21.40;50.23;101355.34;5072990;28;20444;-65
2022/10/17 01:29:51;;;;;;;2.85;1.60;;;;;;;21.36;50.34;101350.44;5030895;28;20490;-65
2022/10/17 01:32:27;;;;;;;4.85;1.77;;;;;;;21.31;50.68;101342.81;5014525;28;20061;-65
2022/10/17 01:35:04;;;;;;;2.03;1.83;;;;;;;21.30;50.46;101341.13;5030835;28;20418;-65
2022/10/17 01:37:33;;;;;;;2.25;1.80;;;;;;;21.31;50.81;101347.44;5036275;28;20084;-62
2022/10/17 01:40:24;;;;;;;2.63;1.85;;;;;;;21.33;49.86;101353.53;5022999;28;20112;-62
2022/10/17 01:43:01;;;;;;;3.38;1.50;;;;;;;21.27;50.08;101336.03;5023088;28;20104;-62
2022/10/17 01:45:32;;;;;;;3.72;2.45;;;;;;;21.31;50.07;101340.09;5022257;28;20467;-62
2022/10/17 01:48:00;;;;;;;3.08;2.15;;;;;;;21.32;50.72;101338.22;5022781;28;20507;-61
2022/10/17 01:50:33;;;;;;;3.33;2.35;;;;;;;21.34;50.69;101339.72;5006408;28;20525;-62
2022/10/17 01:53:02;;;;;;;5.63;1.95;;;;;;;21.38;51.03;101340.22;5022559;28;20477;-62
2022/10/17 01:55:32;;;;;;;6.55;2.67;;;;;;;21.43;51.35;101330.44;5038817;28;20045;-62
2022/10/17 01:58:03;;;;;;;4.22;1.90;;;;;;;21.51;51.45;101328.66;5023065;28;20040;-62
2022/10/17 02:00:29;;;;;;;3.30;2.40;;;;;;;21.60;50.93;101324.78;5064382;28;20109;-62
2022/10/17 02:02:59;;;;;;;6.43;3.15;;;;;;;21.71;51.88;101316.13;5080938;28;20028;-62
2022/10/17 02:05:28;;;;;;;6.18;3.25;;;;;;;21.87;52.08;101324.13;5079725;28;20028;-62
2022/10/17 02:07:53;;;;;;;6.93;3.17;;;;;;;22.04;51.98;101317.44;5079522;28;20432;-62
2022/10/17 02:10:29;;;;;;;4.57;3.08;;;;;;;22.21;51.64;101307.97;5080026;28;20028;-62
2022/10/17 02:13:00;;;;;;;6.25;3.30;;;;;;;22.37;52.44;101306.88;5063073;28;20031;-62
2022/10/17 02:15:42;;;;;;;6.40;2.77;;;;;;;22.56;52.71;101314.41;5080645;28;20036;-62
2022/10/17 02:18:16;;;;;;;3.08;2.70;;;;;;;22.73;52.77;101320.47;5080218;28;20034;-61
2022/10/17 02:20:52;;;;;;;4.60;2.58;;;;;;;22.85;52.30;101310.72;5081061;28;20124;-62
2022/10/17 02:23:41;;;;;;;3.50;2.65;;;;;;;22.99;51.96;101316.09;5081127;28;20026;-61
2022/10/17 02:26:27;;;;;;;3.78;2.47;;;;;;;23.09;51.85;101311.13;5075000;28;20502;-61
2022/10/17 02:29:05;;;;;;;5.00;2.53;;;;;;;23.22;51.87;101321.31;5063506;28;20029;-61
2022/10/17 02:31:39;;;;;;;2.92;2.42;;;;;;;23.30;51.79;101315.69;5080976;28;20111;-62
2022/10/17 02:34:08;;;;;;;2.00;1.80;;;;;;;23.37;52.28;101321.19;5063659;28;20071;-61
2022/10/17 02:36:38;;;;;;;5.70;2.53;;;;;;;23.44;52.01;101322.97;5063259;28;20028;-61
2022/10/17 02:39:05;;;;;;;2.63;2.25;;;;;;;23.49;52.81;101317.75;5063489;28;20413;-61
2022/10/17 02:41:31;;;;;;;2.60;2.08;;;;;;;23.57;51.84;101324.94;5063227;28;20052;-62
2022/10/17 02:43:56;;;;;;;4.30;2.22;;;;;;;23.60;51.93;101317.19;5062849;28;20063;-62
2022/10/17 02:46:23;;;;;;;3.78;2.42;;;;;;;23.60;52.04;101303.50;5063502;28;20465;-61
2022/10/17 02:48:59;;;;;;;6.60;2.35;;;;;;;23.66;52.43;101316.38;5062826;28;20033;-61
2022/10/17 02:51:31;;;;;;;2.67;1.90;;;;;;;23.68;52.16;101306.06;5081384;28;20413;-61
2022/10/17 02:54:26;;;;;;;3.70;2.13;;;;;;;23.65;52.19;101306.47;5080826;28;20024;-61
2022/10/17 02:56:59;;;;;;;3.72;2.20;;;;;;;23.68;52.09;101319.75;5062837;28;20051;-62
2022/10/17 02:59:26;;;;;;;6.28;1.98;;;;;;;23.65;52.25;101311.09;5080366;28;20409;-61
2022/10/17 03:01:52;;;;;;;7.32;1.90;;;;;;;23.66;51.57;101324.56;5062673;28;20035;-61
2022/10/17 03:04:17;;;;;;;3.80;2.22;;;;;;;23.69;51.99;101324.19;5063353;28;20497;-61
2022/10/17 03:06:44;;;;;;;6.95;2.70;;;;;;;23.70;52.06;101325.84;5062730;28;20036;-62
2022/10/17 03:09:09;;;;;;;4.88;2.38;;;;;;;23.71;52.48;101329.44;5062500;28;20025;-62
2022/10/17 03:11:35;;;;;;;3.92;1.92;;;;;;;23.72;52.06;101331.97;5080766;28;20036;-62
2022/10/17 03:14:00;;;;;;;6.63;2.10;;;;;;;23.75;52.65;101345.25;5080730;28;20059;-62
2022/10/17 03:16:25;;;;;;;2.75;2.30;;;;;;;23.74;51.53;101343.56;5062288;28;20028;-62
2022/10/17 03:18:51;;;;;;;6.22;2.75;;;;;;;23.77;51.73;101348.63;5080478;28;20024;-62
2022/10/17 03:21:16;;;;;;;3.80;2.20;;;;;;;23.81;51.97;101345.50;5062390;28;20082;-62
2022/10/17 03:23:42;;;;;;;3.10;1.88;;;;;;;23.82;52.56;101344.41;5045710;28;20041;-62
2022/10/17 03:26:09;;;;;;;5.32;2.47;;;;;;;23.84;51.56;101347.81;5080070;28;20052;-62
2022/10/17 03:28:34;;;;;;;3.08;1.92;;;;;;;23.85;51.97;101352.22;5062130;28;20033;-62
2022/10/17 03:31:06;;;;;;;8.05;1.92;;;;;;;23.87;51.61;101353.72;5079551;28;20389;-61
2022/10/17 03:33:31;;;;;;;2.90;1.50;;;;;;;23.89;51.96;101348.91;5061834;28;20020;-62
2022/10/17 03:35:56;;;;;;;5.47;2.08;;;;;;;23.91;52.51;101351.44;5062340;28;20040;-62
2022/10/17 03:38:22;;;;;;;4.50;2.67;;;;;;;23.94;51.95;101342.81;5061836;28;20051;-62
2022/10/17 03:40:54;;;;;;;4.70;2.47;;;;;;;23.95;52.16;101349.97;5061513;28;20036;-62
2022/10/17 03:43:19;;;;;;;8.02;2.45;;;;;;;23.88;51.54;101333.53;5079425;28;20111;-61
2022/10/17 03:45:45;;;;;;;6.63;2.25;;;;;;;24.00;51.79;101352.94;5079788;28;20056;-62
2022/10/17 03:48:10;;;;;;;2.75;1.90;;;;;;;24.01;51.66;101350.00;5045840;28;20032;-61
2022/10/17 03:50:35;;;;;;;4.15;2.40;;;;;;;24.02;51.63;101346.22;5079902;28;20039;-62
2022/10/17 03:53:01;;;;;;;6.50;2.08;;;;;;;24.03;52.36;101347.91;5079282;28;20493;-62
2022/10/17 03:55:26;;;;;;;4.78;1.90;;;;;;;24.04;52.16;101344.13;5078881;28;20562;-62
2022/10/17 03:57:51;;;;;;;3.25;1.63;;;;;;;24.05;52.36;101350.44;5060881;28;20460;-61
2022/10/17 04:00:17;;;;;;;5.45;2.15;;;;;;;24.05;52.36;101355.91;5078926;28;20100;-61
2022/10/17 04:02:43;;;;;;;3.08;2.50;;;;;;;24.07;52.05;101353.81;5062189;28;20033;-62
2022/10/17 04:05:09;;;;;;;5.05;2.33;;;;;;;24.08;51.96;101353.63;5079519;28;20093;-61
2022/10/17 04:07:36;;;;;;;3.10;1.90;;;;;;;24.09;51.94;101354.47;5061843;28;20064;-62
2022/10/17 04:10:01;;;;;;;2.33;1.65;;;;;;;24.00;51.52;101344.75;5079824;28;20039;-62
2022/10/17 04:12:26;;;;;;;2.35;2.03;;;;;;;24.12;51.42;101367.78;5079345;28;20028;-61
2022/10/17 04:14:52;;;;;;;5.75;2.33;;;;;;;24.13;51.60;101369.44;5060991;28;20398;-62
2022/10/17 04:17:17;;;;;;;3.20;1.98;;;;;;;24.18;51.61;101384.22;5061367;28;20105;-62
2022/10/17 04:19:42;;;;;;;2.92;1.73;;;;;;;24.22;51.16;101395.63;5079221;28;20021;-62
2022/10/17 04:22:08;;;;;;;4.30;1.63;;;;;;;24.24;51.38;101401.72;5079371;28;20024;-62
2022/10/17 04:24:33;;;;;;;4.20;1.80;;;;;;;24.18;51.43;101375.16;5079105;28;20016;-62
2022/10/17 04:26:59;;;;;;;2.50;2.10;;;;;;;24.30;51.63;101382.59;5079220;28;20037;-61
2022/10/17 04:29:25;;;;;;;3.38;2.40;;;;;;;24.32;51.12;101385.09;5079513;28;20516;-61
2022/10/17 04:31:51;;;;;;;6.30;2.00;;;;;;;24.34;51.74;101388.50;5063773;28;20017;-62
2022/10/17 04:34:16;;;;;;;4.00;2.65;;;;;;;24.31;50.53;101377.97;5042260;28;20041;-61
2022/10/17 04:36:42;;;;;;;6.60;2.47;;;;;;;24.35;51.48;101384.69;5058709;28;20033;-62
2022/10/17 04:39:07;;;;;;;2.45;2.00;;;;;;;24.32;51.46;101379.63;5059266;28;20029;-61
2022/10/17 04:41:32;;;;;;;2.75;2.17;;;;;;;24.33;51.24;101389.53;5041360;28;20028;-62
2022/10/17 04:43:58;;;;;;;5.05;2.45;;;;;;;24.36;50.92;101391.88;5041444;28;20049;-61
2022/10/17 04:46:24;;;;;;;3.90;2.00;;;;;;;24.34;51.04;101391.25;5058971;28;20064;-62
2022/10/17 04:48:49;;;;;;;6.45;2.47;;;;;;;24.36;50.91;101391.88;5041384;28;20060;-62
2022/10/17 04:51:17;;;;;;;3.25;2.35;;;;;;;24.34;51.31;101383.84;5059090;28;20033;-62
2022/10/17 04:53:43;;;;;;;3.85;2.67;;;;;;;24.37;51.46;101387.25;5041237;28;20466;-61
2022/10/17 04:56:14;;;;;;;6.32;2.90;;;;;;;24.36;51.44;101391.03;5040819;28;20527;-61
2022/10/17 04:58:40;;;;;;;5.05;2.40;;;;;;;24.25;51.28;101378.78;5059032;28;20524;-61
2022/10/17 05:01:10;;;;;;;3.15;2.15;;;;;;;24.33;51.21;101395.88;5040582;28;20021;-62
2022/10/17 05:03:36;;;;;;;3.75;2.40;;;;;;;24.33;51.29;101401.34;5040998;28;20476;-62
2022/10/17 05:06:07;;;;;;;3.13;2.17;;;;;;;24.33;50.93;101409.56;5058427;28;20025;-61
2022/10/17 05:08:32;;;;;;;3.33;2.10;;;;;;;24.33;51.15;101406.84;5041205;28;20036;-61
2022/10/17 05:10:58;;;;;;;5.25;2.70;;;;;;;24.32;51.47;101407.03;5057914;28;20093;-62
2022/10/17 05:13:23;;;;;;;3.95;2.28;;;;;;;24.33;51.38;101408.72;5058682;28;20120;-62
2022/10/17 05:15:49;;;;;;;6.93;2.60;;;;;;;24.31;51.38;101399.88;5058888;28;20029;-61
2022/10/17 05:18:14;;;;;;;7.13;2.55;;;;;;;24.37;50.85;101403.69;5041151;28;20112;-62
2022/10/17 05:20:39;;;;;;;4.22;2.20;;;;;;;24.38;51.15;101397.13;5024737;28;20394;-62
2022/10/17 05:23:05;;;;;;;6.95;2.50;;;;;;;24.39;51.07;101393.34;5058827;28;20041;-61
2022/10/17 05:25:30;;;;;;;4.53;2.80;;;;;;;24.38;51.41;101395.25;5059349;28;20033;-61
2022/10/17 05:27:55;;;;;;;4.65;1.80;;;;;;;24.40;51.26;101395.88;5058847;28;20032;-62
2022/10/17 05:30:21;;;;;;;4.43;2.15;;;;;;;24.44;51.00;101410.88;5025034;28;20035;-62
2022/10/17 05:32:46;;;;;;;5.35;2.00;;;;;;;24.46;51.13;101406.00;5058625;28;20029;-62
2022/10/17 05:35:11;;;;;;;3.92;2.33;;;;;;;24.49;51.50;101397.38;5058571;28;20108;-62
2022/10/17 05:37:37;;;;;;;1.88;1.75;;;;;;;24.43;51.24;101387.25;5059433;28;20082;-61
2022/10/17 05:40:03;;;;;;;5.55;1.95;;;;;;;24.51;51.23;101400.75;5041223;28;20029;-61
2022/10/17 05:42:28;;;;;;;6.53;2.83;;;;;;;24.53;51.06;101404.16;5058981;28;20029;-62
2022/10/17 05:44:54;;;;;;;6.03;2.20;;;;;;;24.54;50.59;101405.00;5059214;28;20024;-62
2022/10/17 05:47:19;;;;;;;2.22;1.75;;;;;;;24.53;51.33;101404.16;5058770;28;20052;-62
2022/10/17 05:49:44;;;;;;;3.38;1.50;;;;;;;24.54;51.03;101399.53;5058971;28;20021;-62
2022/10/17 05:52:10;;;;;;;6.22;2.15;;;;;;;24.57;51.20;101399.09;5058659;28;20021;-62
2022/10/17 05:54:35;;;;;;;5.55;2.13;;;;;;;24.57;50.76;101410.91;5058254;28;20120;-62
2022/10/17 05:57:00;;;;;;;3.38;1.73;;;;;;;24.59;51.01;101399.75;5058727;28;20037;-62
2022/10/17 05:59:26;;;;;;;5.40;1.90;;;;;;;24.54;50.88;101402.28;5058641;28;20085;-61
2022/10/17 06:01:52;;;;;;;2.50;1.90;;;;;;;24.58;51.01;101418.06;5040730;28;20029;-61
2022/10/17 06:04:18;;;;;;;7.85;2.10;;;;;;;24.54;50.59;101407.75;5058490;28;20033;-62
2022/10/17 06:06:43;;;;;;;2.08;1.73;;;;;;;24.59;50.56;101419.78;5058363;28;20025;-62
2022/10/17 06:09:09;;;;;;;3.28;2.17;;;;;;;24.60;50.97;101426.94;5058394;28;20032;-62
2022/10/17 06:11:34;;;;;;;3.38;2.08;;;;;;;24.62;50.61;101429.47;5040782;28;20083;-61
2022/10/17 06:14:00;;;;;;;8.43;2.00;;;;;;;24.64;50.53;101430.97;5039611;28;20060;-62
2022/10/17 06:16:25;;;;;;;5.00;2.88;;;;;;;24.64;50.54;101433.69;5058915;28;20451;-62
2022/10/17 06:18:51;;;;;;;3.80;2.40;;;;;;;24.66;50.75;101433.47;5058136;28;20036;-62
2022/10/17 06:21:20;;;;;;;6.50;2.08;;;;;;;24.67;50.58;101438.78;5056592;28;20102;-62
2022/10/17 06:23:45;;;;;;;5.35;1.80;;;;;;;24.71;50.93;101439.19;5060343;28;20494;-62
2022/10/17 06:26:10;;;;;;;6.57;2.42;;;;;;;24.70;50.74;101437.50;5062960;28;20025;-62
2022/10/17 06:28:36;;;;;;;5.00;2.80;;;;;;;24.69;50.55;101436.66;5063369;28;20025;-62
2022/10/17 06:31:06;;;;;;;5.28;2.17;;;;;;;24.70;50.73;101438.34;5063138;28;20096;-61
2022/10/17 06:33:31;;;;;;;4.78;1.95;;;;;;;24.74;50.26;101445.09;5044369;28;20036;-62
2022/10/17 06:35:57;;;;;;;4.57;2.45;;;;;;;24.74;50.18;101447.84;5043839;28;20025;-62
2022/10/17 06:38:22;;;;;;;5.05;2.33;;;;;;;24.78;50.48;101446.38;5043438;28;20024;-62
2022/10/17 06:40:48;;;;;;;8.48;2.58;;;;;;;24.88;50.52;101446.00;5061577;28;20029;-61
2022/10/17 06:43:13;;;;;;;2.95;1.83;;;;;;;24.90;50.63;101433.78;5061754;28;20057;-62
2022/10/17 06:45:39;;;;;;;2.67;1.88;;;;;;;24.95;50.30;101446.03;5043450;28;20077;-62
2022/10/17 06:48:05;;;;;;;4.82;2.17;;;;;;;25.00;49.91;101457.22;5061160;28;20043;-62
2022/10/17 06:50:31;;;;;;;3.60;2.20;;;;;;;25.05;50.31;101454.69;5026121;28;20056;-62
2022/10/17 06:52:56;;;;;;;4.60;1.77;;;;;;;25.08;50.00;101459.75;5043483;28;20083;-62
2022/10/17 06:55:22;;;;;;;7.10;2.05;;;;;;;25.11;50.03;101459.34;5060690;28;20479;-62
2022/10/17 06:57:47;;;;;;;4.00;1.75;;;;;;;25.11;49.85;101459.34;5061067;28;20053;-62
2022/10/17 07:00:13;;;;;;;5.38;2.90;;;;;;;25.15;49.97;101463.38;5061114;28;20025;-62
2022/10/17 07:02:38;;;;;;;4.88;2.17;;;;;;;25.14;49.80;101467.16;5061573;28;20067;-62
2022/10/17 07:05:04;;;;;;;7.70;1.77;;;;;;;25.12;50.06;101459.16;5060904;28;20020;-62
2022/10/17 07:07:31;;;;;;;7.05;1.95;;;;;;;25.10;49.58;101460.41;5060295;28;20036;-62
2022/10/17 07:09:56;;;;;;;3.53;1.60;;;;;;;25.13;49.71;101457.22;5026139;28;20025;-62
2022/10/17 07:12:23;;;;;;;5.07;2.30;;;;;;;25.21;49.50;101473.50;5067989;28;20043;-62
2022/10/17 07:14:49;;;;;;;3.55;1.98;;;;;;;25.26;49.28;101477.31;5050706;28;20021;-62
2022/10/17 07:17:17;;;;;;;2.35;1.40;;;;;;;25.30;49.22;101478.56;5080755;28;20039;-62
2022/10/17 07:19:43;;;;;;;5.18;1.52;;;;;;;25.35;49.37;101486.16;5080460;28;20473;-62
2022/10/17 07:22:09;;;;;;;4.22;1.70;;;;;;;25.41;48.97;101490.81;5081031;28;20059;-62
2022/10/17 07:24:34;;;;;;;5.38;1.75;;;;;;;25.47;49.27;101495.50;5080675;28;20031;-62
2022/10/17 07:27:00;;;;;;;3.55;1.65;;;;;;;25.51;48.86;101490.44;5063269;28;20055;-62
2022/10/17 07:29:25;;;;;;;2.85;1.80;;;;;;;25.59;48.65;101496.56;5080521;28;20035;-62
2022/10/17 07:31:50;;;;;;;5.90;2.13;;;;;;;25.71;48.66;101500.34;5080361;28;20059;-62
2022/10/17 07:34:16;;;;;;;3.67;2.00;;;;;;;25.79;48.72;101494.66;5080530;28;20039;-62
2022/10/17 07:36:42;;;;;;;5.35;2.30;;;;;;;25.91;48.63;101509.41;5062778;28;20514;-62
2022/10/17 07:39:08;;;;;;;4.03;2.55;;;;;;;25.99;48.38;101511.94;5062467;28;20050;-62
2022/10/17 07:41:33;;;;;;;6.60;3.00;;;;;;;26.07;48.33;101521.03;5062689;28;20145;-62
2022/10/17 07:43:59;;;;;;;9.57;2.60;;;;;;;26.23;48.17;101517.84;5080677;28;20044;-62
2022/10/17 07:46:24;;;;;;;4.15;1.92;;;;;;;26.33;48.48;101523.72;5063120;28;20032;-62
2022/10/17 07:48:50;;;;;;;4.57;1.70;;;;;;;26.34;47.41;101517.19;5080525;28;20081;-62
2022/10/17 07:51:17;;;;;;;5.50;1.88;;;;;;;26.40;47.51;101513.56;5079752;28;20115;-62
2022/10/17 07:53:43;;;;;;;5.60;1.77;;;;;;;26.57;47.33;101518.38;5080508;28;20482;-62
2022/10/17 07:56:08;;;;;;;2.28;1.60;;;;;;;26.69;47.17;101524.03;5062297;28;20029;-62
2022/10/17 07:58:35;;;;;;;3.60;2.38;;;;;;;26.87;47.33;101526.94;5063009;28;20516;-63
2022/10/17 08:01:04;;;;;;;2.95;1.60;;;;;;;27.04;47.24;101539.13;5063622;28;20020;-62
2022/10/17 08:03:30;;;;;;;7.53;1.77;;;;;;;27.15;46.82;101541.19;5062718;28;20032;-62
2022/10/17 08:06:03;;;;;;;1.52;1.35;;;;;;;27.17;47.39;101543.69;5081196;28;20037;-62
2022/10/17 08:08:28;;;;;;;2.60;1.80;;;;;;;27.24;47.27;101549.19;5063791;28;20020;-62
2022/10/17 08:10:55;;;;;;;3.95;1.35;;;;;;;27.22;46.38;101556.81;5062888;28;20036;-62
2022/10/17 08:13:21;;;;;;;4.03;1.92;;;;;;;27.14;46.06;101561.50;5063428;28;20024;-62
2022/10/17 08:15:47;;;;;;;4.10;1.77;;;;;;;27.12;46.41;101569.13;5080530;28;20090;-62
2022/10/17 08:18:13;;;;;;;5.15;2.10;;;;;;;27.10;46.90;101571.28;5062977;28;20032;-62
2022/10/17 08:20:39;;;;;;;9.80;2.05;;;;;;;27.34;46.48;101568.78;5080726;28;20020;-62
2022/10/17 08:23:05;;;;;;;4.72;1.90;;;;;;;27.47;46.47;101575.09;5081965;28;20031;-62
2022/10/17 08:25:30;;;;;;;2.58;1.73;;;;;;;27.64;45.59;101576.25;5081747;28;20028;-62
2022/10/17 08:27:57;;;;;;;5.57;1.80;;;;;;;27.63;45.30;101595.75;5081692;28;20036;-62
2022/10/17 08:30:22;;;;;;;3.72;2.03;;;;;;;27.79;45.48;101591.59;5080865;28;20051;-62
2022/10/17 08:32:47;;;;;;;10.70;1.88;;;;;;;27.73;45.29;101577.66;5046547;28;20436;-63
2022/10/17 08:35:13;;;;;;;7.88;1.60;;;;;;;28.02;45.92;101606.47;5081616;28;20045;-62
2022/10/17 08:37:39;;;;;;;4.55;1.83;;;;;;;27.90;45.83;101600.00;5082066;28;20030;-62
2022/10/17 08:40:06;;;;;;;7.88;2.00;;;;;;;27.78;45.85;101607.28;5080876;28;20029;-62
2022/10/17 08:42:52;;;;;;;4.80;1.88;;;;;;;27.70;45.66;101621.31;5081383;28;20469;-62
2022/10/17 08:45:20;;;;;;;3.63;1.63;;;;;;;27.59;46.12;101619.28;5080094;28;20076;-62
2022/10/17 08:48:01;;;;;;;4.97;1.60;;;;;;;27.48;45.95;101614.47;5081145;28;20024;-62
2022/10/17 08:50:52;;;;;;;2.03;1.38;;;;;;;27.47;46.40;101610.06;5062874;28;20028;-63
2022/10/17 08:53:24;;;;;;;7.13;1.75;;;;;;;27.42;45.62;101629.97;5081359;28;20027;-62
2022/10/17 08:55:51;;;;;;;6.97;1.63;;;;;;;27.37;45.92;101626.16;5081130;28;20028;-62
2022/10/17 08:58:18;;;;;;;7.13;2.20;;;;;;;27.34;45.43;101626.59;5042766;28;20414;-62
2022/10/17 09:00:51;;;;;;;3.97;1.58;;;;;;;27.30;45.31;101637.22;5060630;28;20474;-62
2022/10/17 09:03:28;;;;;;;5.53;2.13;;;;;;;27.22;46.24;101636.63;5061829;28;20109;-62
2022/10/17 09:06:15;;;;;;;2.00;1.55;;;;;;;27.18;46.59;101650.81;5060800;28;20100;-62
2022/10/17 09:08:55;;;;;;;3.10;1.63;;;;;;;27.10;45.55;101642.81;5059388;28;20029;-62
2022/10/17 09:11:42;;;;;;;3.95;1.73;;;;;;;27.09;46.64;101656.75;5060253;28;20032;-62
2022/10/17 09:14:26;;;;;;;5.47;1.52;;;;;;;27.02;46.04;101661.44;5061211;28;20424;-62
2022/10/17 09:17:01;;;;;;;3.72;1.88;;;;;;;26.93;46.85;101669.09;5061018;28;20082;-62
2022/10/17 09:19:35;;;;;;;4.20;2.20;;;;;;;26.86;46.46;101673.75;5061153;28;20031;-62
2022/10/17 09:22:04;;;;;;;9.07;1.70;;;;;;;26.84;46.64;101675.03;5059870;28;20483;-62
2022/10/17 09:24:49;;;;;;;3.45;1.63;;;;;;;26.85;46.23;101674.84;5059425;28;20471;-62
2022/10/17 09:27:23;;;;;;;5.75;1.70;;;;;;;26.87;46.89;101682.84;5059478;28;20029;-61
2022/10/17 09:29:54;;;;;;;4.88;1.92;;;;;;;26.83;46.07;101671.44;5060865;28;20036;-62
2022/10/17 09:32:24;;;;;;;3.58;1.80;;;;;;;26.87;46.26;101680.94;5060431;28;20021;-62
2022/10/17 09:34:52;;;;;;;4.72;2.53;;;;;;;26.89;46.93;101673.31;5060984;28;20443;-62
2022/10/17 09:37:18;;;;;;;2.22;1.55;;;;;;;26.93;47.01;101669.09;5061794;28;20083;-62
2022/10/17 09:39:43;;;;;;;1.80;1.30;;;;;;;27.00;46.90;101658.91;5062094;28;20061;-62
2022/10/17 09:42:12;;;;;;;3.03;1.95;;;;;;;27.05;46.46;101656.34;5061534;28;20044;-62
2022/10/17 09:44:56;;;;;;;6.30;2.05;;;;;;;27.14;45.67;101660.53;5060074;28;20061;-62
2022/10/17 09:47:40;;;;;;;5.45;1.52;;;;;;;27.17;46.46;101679.38;5060374;28;20021;-60
2022/10/17 09:50:18;;;;;;;7.93;2.58;;;;;;;27.17;45.85;101676.63;5060867;28;20422;-62
2022/10/17 09:52:47;;;;;;;3.95;2.03;;;;;;;27.16;46.51;101691.44;5060524;28;20469;-62
2022/10/17 09:55:42;;;;;;;7.90;1.75;;;;;;;27.15;45.91;101687.00;5061187;28;20059;-62
2022/10/17 09:58:09;;;;;;;4.10;2.28;;;;;;;27.15;46.58;101700.75;5063250;28;20529;-62
2022/10/17 10:00:39;;;;;;;2.80;1.75;;;;;;;27.13;46.02;101691.91;5065134;28;20040;-62
2022/10/17 10:03:09;;;;;;;1.67;1.52;;;;;;;27.10;46.70;101703.31;5064479;28;20060;-62
2022/10/17 10:05:34;;;;;;;3.63;2.03;;;;;;;27.03;46.32;101696.13;5062796;28;20104;-62
2022/10/17 10:08:03;;;;;;;3.63;1.42;;;;;;;26.98;46.56;101694.03;5063179;28;20100;-60
2022/10/17 10:10:30;;;;;;;2.38;1.73;;;;;;;26.94;47.01;101676.25;5064564;28;20059;-62
2022/10/17 10:13:14;;;;;;;5.40;1.77;;;;;;;26.85;46.39;101665.72;5063430;28;20032;-62
2022/10/17 10:15:44;;;;;;;8.35;1.88;;;;;;;26.70;46.94;101696.19;5067250;28;20386;-62
2022/10/17 10:18:31;;;;;;;17.38;2.17;;;;;;;26.55;47.12;101682.66;5069241;28;20021;-62
2022/10/17 10:21:11;;;;;;;3.60;1.85;;;;;;;26.46;47.72;101674.84;5067255;28;20039;-62
2022/10/17 10:23:39;;;;;;;8.07;2.22;;;;;;;26.42;47.35;101682.69;5065896;28;20500;-62
2022/10/17 10:26:18;;;;;;;6.82;2.70;;;;;;;26.40;47.66;101694.94;5068577;28;20023;-62
2022/10/17 10:28:52;;;;;;;3.15;1.60;;;;;;;26.48;47.35;101680.97;5071015;28;20028;-61
2022/10/17 10:31:28;;;;;;;6.85;2.20;;;;;;;26.59;47.60;101694.94;5069470;28;20027;-62
2022/10/17 10:33:53;;;;;;;6.45;1.88;;;;;;;26.65;46.86;101682.22;5068470;28;20025;-62
2022/10/17 10:36:21;;;;;;;2.58;1.58;;;;;;;26.76;47.02;101694.47;5063293;28;20371;-62
2022/10/17 10:38:52;;;;;;;4.03;1.90;;;;;;;26.84;47.40;101702.53;5060385;28;20037;-62
2022/10/17 10:41:18;;;;;;;3.30;2.10;;;;;;;26.87;46.97;101705.69;5059903;28;20087;-63
2022/10/17 10:43:48;;;;;;;5.75;2.00;;;;;;;26.86;46.88;101716.91;5042145;28;20025;-62
2022/10/17 10:46:20;;;;;;;4.32;1.77;;;;;;;26.81;47.33;101714.81;5057876;28;20029;-62
2022/10/17 10:48:55;;;;;;;7.03;1.50;;;;;;;26.82;46.89;101738.50;5059876;28;20426;-62
2022/10/17 10:51:32;;;;;;;3.33;2.03;;;;;;;26.80;47.05;101726.84;5059925;28;20086;-62
2022/10/17 10:54:09;;;;;;;4.35;2.10;;;;;;;26.77;47.31;101740.19;5058505;28;20050;-62
2022/10/17 10:56:55;;;;;;;5.82;2.00;;;;;;;26.71;47.48;101747.38;5058813;28;20432;-62
2022/10/17 10:59:36;;;;;;;5.30;2.53;;;;;;;26.66;47.13;101744.41;5058251;28;20040;-62
2022/10/17 11:02:11;;;;;;;7.82;2.00;;;;;;;26.61;47.31;101757.94;5059457;28;20107;-59
2022/10/17 11:04:54;;;;;;;4.88;1.95;;;;;;;26.56;47.35;101749.47;5059175;28;20506;-62
2022/10/17 11:07:36;;;;;;;6.97;1.90;;;;;;;26.55;48.12;101745.03;5041332;28;20371;-62
2022/10/17 11:10:07;;;;;;;7.70;2.08;;;;;;;26.49;47.75;101748.66;5057820;28;20488;-61
2022/10/17 11:12:40;;;;;;;8.43;2.63;;;;;;;26.42;47.90;101756.88;5059405;28;20501;-61
2022/10/17 11:15:21;;;;;;;4.45;1.65;;;;;;;26.36;47.57;101757.72;5058210;28;20569;-62
2022/10/17 11:17:55;;;;;;;7.50;1.60;;;;;;;26.31;47.87;101767.63;5059299;28;20108;-61
2022/10/17 11:20:39;;;;;;;5.65;1.90;;;;;;;26.22;48.48;101777.97;5058581;28;20083;-62
2022/10/17 11:23:18;;;;;;;5.75;2.20;;;;;;;26.13;48.21;101781.94;5059239;28;20071;-62
2022/10/17 11:25:44;;;;;;;7.90;2.22;;;;;;;26.11;47.86;101788.69;5059370;28;20013;-62
2022/10/17 11:28:18;;;;;;;3.38;2.30;;;;;;;26.11;48.12;101788.69;5057477;28;20025;-61
2022/10/17 11:30:47;;;;;;;3.40;1.77;;;;;;;26.11;48.37;101788.69;5057470;28;20387;-61
2022/10/17 11:33:27;;;;;;;3.10;1.80;;;;;;;26.12;48.25;101804.13;5058853;28;20029;-62
2022/10/17 11:35:57;;;;;;;8.98;2.45;;;;;;;26.16;48.51;101797.22;5057417;28;20025;-61